createdAt,value
2017-10-25T00:01:01.069Z,51.80
2017-10-25T00:03:29.730Z,51.20
2017-10-25T00:05:58.319Z,51.40
2017-10-25T00:08:26.126Z,50.80
2017-10-25T00:10:54.123Z,50.80
2017-10-25T00:13:21.949Z,50.50
2017-10-25T00:15:49.801Z,50.30
2017-10-25T00:18:18.364Z,49.90
2017-10-25T00:20:47.794Z,49.90
2017-10-25T00:23:15.620Z,49.80
2017-10-25T00:25:43.654Z,50.00
2017-10-25T00:28:11.583Z,47.60
2017-10-25T00:30:40.180Z,46.00
2017-10-25T00:33:08.843Z,46.90
2017-10-25T00:35:37.585Z,46.30
2017-10-25T00:38:05.464Z,46.30
2017-10-25T00:40:33.680Z,46.30
2017-10-25T00:43:02.306Z,45.40
2017-10-25T00:45:31.550Z,45.40
2017-10-25T00:47:59.381Z,44.50
2017-10-25T00:50:27.556Z,40.10
2017-10-25T00:52:55.420Z,39.30
2017-10-25T00:55:23.996Z,39.00
2017-10-25T00:57:52.072Z,40.80
2017-10-25T01:00:20.245Z,42.00
2017-10-25T01:02:48.145Z,41.80
2017-10-25T01:05:16.060Z,40.70
2017-10-25T01:07:43.939Z,39.70
2017-10-25T01:10:11.800Z,39.30
2017-10-25T01:12:39.656Z,39.50
2017-10-25T01:15:07.486Z,40.10
2017-10-25T01:17:35.388Z,39.90
2017-10-25T01:20:03.313Z,38.70
2017-10-25T01:22:31.159Z,37.80
2017-10-25T01:24:59.058Z,35.20
2017-10-25T01:27:28.456Z,36.30
2017-10-25T01:29:56.469Z,36.30
2017-10-25T01:32:24.418Z,37.70
2017-10-25T01:34:52.379Z,36.70
2017-10-25T01:37:21.008Z,35.60
2017-10-25T01:39:48.954Z,35.40
2017-10-25T01:42:17.080Z,33.90
2017-10-25T01:44:45.043Z,32.40
2017-10-25T01:47:12.982Z,32.70
2017-10-25T01:49:40.917Z,31.40
2017-10-25T01:52:08.739Z,32.40
2017-10-25T01:54:36.772Z,31.40
2017-10-25T01:57:04.725Z,33.90
2017-10-25T01:59:32.648Z,34.30
2017-10-25T02:02:00.552Z,34.90
2017-10-25T02:04:29.184Z,36.00
2017-10-25T02:06:57.042Z,35.40
2017-10-25T02:09:24.957Z,34.90
2017-10-25T02:11:53.944Z,35.70
2017-10-25T02:14:22.573Z,35.30
2017-10-25T02:16:50.546Z,35.30
2017-10-25T02:19:18.457Z,34.50
2017-10-25T02:21:46.306Z,34.60
2017-10-25T02:24:14.137Z,35.00
2017-10-25T02:26:42.115Z,35.00
2017-10-25T02:29:10.007Z,34.20
2017-10-25T02:31:37.886Z,33.40
2017-10-25T02:34:05.713Z,32.80
2017-10-25T02:36:34.438Z,33.20
2017-10-25T02:39:02.405Z,33.20
2017-10-25T02:41:30.668Z,32.10
2017-10-25T02:43:58.504Z,32.60
2017-10-25T02:46:26.370Z,34.00
2017-10-25T02:48:54.185Z,33.80
2017-10-25T02:51:22.270Z,34.00
2017-10-25T02:53:50.908Z,35.40
2017-10-25T02:56:18.753Z,35.30
2017-10-25T02:58:47.421Z,36.10
2017-10-25T03:01:15.279Z,36.10
2017-10-25T03:03:43.904Z,42.60
2017-10-25T03:06:11.753Z,42.50
2017-10-25T03:08:39.595Z,43.30
2017-10-25T03:11:07.470Z,44.00
2017-10-25T03:13:35.383Z,45.20
2017-10-25T03:16:03.253Z,46.70
2017-10-25T03:18:31.230Z,47.80
2017-10-25T03:20:59.191Z,49.20
2017-10-25T03:23:27.210Z,49.50
2017-10-25T03:25:55.073Z,50.10
2017-10-25T03:28:23.583Z,51.10
2017-10-25T03:30:51.455Z,51.60
2017-10-25T03:33:19.292Z,52.10
2017-10-25T03:35:47.214Z,52.70
2017-10-25T03:38:15.120Z,52.90
2017-10-25T03:40:43.146Z,53.20
2017-10-25T03:43:10.953Z,53.60
2017-10-25T03:45:38.835Z,53.50
2017-10-25T03:48:06.674Z,53.90
2017-10-25T03:50:35.326Z,54.10
2017-10-25T03:53:03.229Z,54.10
2017-10-25T03:55:31.877Z,54.40
2017-10-25T03:57:59.733Z,54.40
2017-10-25T04:00:27.553Z,54.40
2017-10-25T04:02:56.233Z,54.40
2017-10-25T04:05:24.854Z,54.50
2017-10-25T04:07:52.724Z,54.50
2017-10-25T04:10:21.415Z,54.40
2017-10-25T04:12:49.268Z,54.30
2017-10-25T04:15:17.214Z,54.30
2017-10-25T04:17:45.038Z,54.10
2017-10-25T04:20:12.872Z,54.10
2017-10-25T04:22:40.706Z,54.20
2017-10-25T04:25:09.384Z,54.20
2017-10-25T04:27:38.072Z,54.30
2017-10-25T04:30:06.794Z,54.30
2017-10-25T04:32:35.007Z,54.30
2017-10-25T04:35:03.686Z,55.00
2017-10-25T04:37:31.560Z,54.50
2017-10-25T04:39:59.429Z,54.60
2017-10-25T04:42:27.234Z,54.00
2017-10-25T04:44:55.047Z,55.10
2017-10-25T04:47:22.892Z,54.40
2017-10-25T04:49:50.699Z,54.20
2017-10-25T04:52:19.336Z,54.20
2017-10-25T04:54:47.338Z,54.20
2017-10-25T04:57:15.280Z,54.20
2017-10-25T04:59:43.301Z,54.00
2017-10-25T05:02:11.891Z,53.80
2017-10-25T05:04:40.584Z,53.70
2017-10-25T05:07:08.637Z,53.60
2017-10-25T05:09:37.224Z,53.20
2017-10-25T05:12:06.452Z,53.30
2017-10-25T05:14:35.057Z,53.40
2017-10-25T05:17:03.085Z,52.80
2017-10-25T05:19:31.704Z,52.90
2017-10-25T05:21:59.614Z,52.90
2017-10-25T05:24:28.331Z,53.10
2017-10-25T05:26:56.471Z,53.10
2017-10-25T05:29:25.167Z,53.20
2017-10-25T05:31:53.872Z,53.50
2017-10-25T05:34:21.713Z,53.50
2017-10-25T05:36:50.645Z,54.00
2017-10-25T05:39:18.586Z,54.00
2017-10-25T05:41:47.273Z,54.30
2017-10-25T05:44:15.973Z,54.50
2017-10-25T05:46:43.848Z,54.40
2017-10-25T05:49:11.831Z,54.70
2017-10-25T05:51:39.801Z,54.80
2017-10-25T05:54:07.729Z,54.90
2017-10-25T05:56:36.388Z,55.30
2017-10-25T05:59:04.197Z,55.30
2017-10-25T06:01:32.108Z,55.50
2017-10-25T06:03:59.971Z,55.60
2017-10-25T06:06:28.019Z,55.70
2017-10-25T06:08:56.711Z,55.90
2017-10-25T06:11:24.587Z,55.90
2017-10-25T06:13:52.446Z,55.80
2017-10-25T06:16:20.352Z,55.90
2017-10-25T06:18:49.076Z,56.10
2017-10-25T06:21:16.990Z,56.10
2017-10-25T06:23:44.849Z,56.40
2017-10-25T06:26:12.742Z,56.60
2017-10-25T06:28:41.500Z,57.60
2017-10-25T06:31:09.361Z,57.00
2017-10-25T06:33:37.295Z,57.20
2017-10-25T06:36:05.307Z,57.50
2017-10-25T06:38:33.169Z,57.80
2017-10-25T06:41:01.113Z,57.90
2017-10-25T06:43:28.990Z,58.10
2017-10-25T06:45:56.926Z,58.40
2017-10-25T06:48:24.755Z,58.50
2017-10-25T06:50:52.726Z,58.50
2017-10-25T06:53:20.700Z,58.60
2017-10-25T06:55:48.679Z,58.50
2017-10-25T06:58:17.337Z,58.50
2017-10-25T07:00:45.218Z,58.50
2017-10-25T07:03:13.048Z,58.50
2017-10-25T07:05:40.843Z,58.60
2017-10-25T07:08:08.856Z,58.60
2017-10-25T07:10:36.714Z,58.80
2017-10-25T07:13:04.532Z,58.70
2017-10-25T07:15:32.415Z,58.40
2017-10-25T07:18:00.269Z,58.10
2017-10-25T07:20:28.099Z,57.90
2017-10-25T07:22:56.234Z,57.80
2017-10-25T07:25:24.889Z,57.70
2017-10-25T07:27:52.739Z,57.70
2017-10-25T07:30:20.588Z,57.60
2017-10-25T07:32:49.301Z,57.70
2017-10-25T07:35:17.124Z,57.70
2017-10-25T07:37:45.058Z,57.70
2017-10-25T07:40:13.008Z,57.70
2017-10-25T07:42:40.969Z,58.30
2017-10-25T07:45:08.807Z,57.70
2017-10-25T07:47:36.649Z,57.90
2017-10-25T07:50:05.341Z,57.90
2017-10-25T07:52:33.232Z,57.80
2017-10-25T07:55:01.052Z,57.80
2017-10-25T07:57:29.751Z,57.50
2017-10-25T07:59:57.605Z,57.50
2017-10-25T08:02:26.173Z,56.60
2017-10-25T08:04:54.022Z,56.50
2017-10-25T08:07:21.882Z,55.90
2017-10-25T08:09:50.574Z,53.90
2017-10-25T08:12:18.460Z,53.80
2017-10-25T08:14:46.325Z,53.20
2017-10-25T08:17:14.232Z,52.50
2017-10-25T08:19:42.057Z,50.50
2017-10-25T08:22:10.013Z,50.70
2017-10-25T08:24:37.855Z,50.00
2017-10-25T08:27:05.756Z,50.20
2017-10-25T08:29:33.680Z,49.40
2017-10-25T08:32:01.575Z,49.30
2017-10-25T08:34:29.657Z,47.90
2017-10-25T08:36:57.588Z,47.90
2017-10-25T08:39:25.527Z,47.10
2017-10-25T08:41:53.484Z,46.50
2017-10-25T08:44:21.406Z,46.50
2017-10-25T08:46:49.236Z,46.30
2017-10-25T08:49:17.150Z,43.20
2017-10-25T08:51:45.185Z,43.70
2017-10-25T08:54:13.111Z,43.80
2017-10-25T08:56:41.936Z,42.50
2017-10-25T08:59:09.851Z,42.50
2017-10-25T09:01:37.801Z,43.20
2017-10-25T09:04:06.092Z,40.50
2017-10-25T09:06:34.060Z,40.00
2017-10-25T09:09:02.262Z,38.00
2017-10-25T09:11:31.079Z,36.40
2017-10-25T09:14:00.188Z,36.40
2017-10-25T09:16:28.013Z,35.40
2017-10-25T09:18:56.792Z,35.40
2017-10-25T09:21:25.484Z,35.90
2017-10-25T09:23:54.500Z,35.60
2017-10-25T09:26:23.266Z,35.40
2017-10-25T09:28:51.189Z,35.40
2017-10-25T09:31:19.050Z,36.50
2017-10-25T09:33:46.865Z,33.90
2017-10-25T09:36:15.580Z,33.80
2017-10-25T09:38:43.488Z,33.80
2017-10-25T09:41:11.355Z,33.20
2017-10-25T09:43:39.256Z,33.60
2017-10-25T09:46:07.839Z,33.60
2017-10-25T09:48:36.515Z,32.30
2017-10-25T09:51:04.483Z,32.20
2017-10-25T09:53:33.105Z,32.10
2017-10-25T09:56:01.055Z,32.10
2017-10-25T09:58:28.888Z,32.80
2017-10-25T10:00:56.689Z,32.80
2017-10-25T10:03:24.864Z,32.50
2017-10-25T10:05:52.713Z,33.80
2017-10-25T10:08:21.337Z,32.50
2017-10-25T10:10:49.654Z,32.40
2017-10-25T10:13:18.319Z,32.80
2017-10-25T10:15:47.237Z,32.70
2017-10-25T10:18:15.102Z,31.70
2017-10-25T10:20:43.071Z,32.20
2017-10-25T10:23:11.798Z,32.60
2017-10-25T10:25:39.973Z,32.60
2017-10-25T10:28:07.916Z,32.90
2017-10-25T10:30:37.210Z,32.80
2017-10-25T10:33:05.121Z,32.70
2017-10-25T10:35:33.035Z,33.40
2017-10-25T10:38:01.912Z,32.50
2017-10-25T10:40:29.931Z,32.50
2017-10-25T10:42:57.768Z,33.90
2017-10-25T10:45:26.124Z,33.90
2017-10-25T10:47:54.205Z,33.10
2017-10-25T10:50:22.128Z,34.40
2017-10-25T10:52:49.960Z,33.20
2017-10-25T10:55:18.857Z,35.50
2017-10-25T10:57:47.474Z,36.10
2017-10-25T11:00:15.417Z,36.00
2017-10-25T11:02:43.349Z,33.90
2017-10-25T11:05:11.208Z,33.40
2017-10-25T11:07:39.184Z,32.70
2017-10-25T11:10:07.399Z,33.90
2017-10-25T11:12:36.174Z,33.70
2017-10-25T11:15:04.829Z,34.00
2017-10-25T11:17:32.672Z,34.00
2017-10-25T11:20:00.633Z,34.70
2017-10-25T11:22:28.544Z,34.60
2017-10-25T11:24:57.140Z,34.70
2017-10-25T11:27:24.995Z,34.70
2017-10-25T11:29:53.044Z,37.80
2017-10-25T11:32:20.954Z,40.10
2017-10-25T11:34:48.956Z,41.50
2017-10-25T11:37:16.820Z,42.30
2017-10-25T11:39:44.745Z,43.70
2017-10-25T11:42:13.437Z,44.30
2017-10-25T11:44:42.007Z,44.90
2017-10-25T11:47:10.604Z,45.20
2017-10-25T11:49:39.200Z,45.20
2017-10-25T11:52:07.243Z,45.20
2017-10-25T11:54:35.893Z,45.10
2017-10-25T11:57:03.907Z,45.20
2017-10-25T11:59:32.541Z,44.80
2017-10-25T12:02:00.359Z,44.80
2017-10-25T12:04:29.007Z,44.20
2017-10-25T12:06:56.901Z,44.10
2017-10-25T12:09:25.509Z,43.60
2017-10-25T12:11:53.458Z,43.60
2017-10-25T12:14:22.094Z,43.40
2017-10-25T12:16:50.272Z,43.40
2017-10-25T12:19:18.923Z,43.50
2017-10-25T12:21:46.738Z,43.50
2017-10-25T12:24:14.668Z,43.70
2017-10-25T12:26:43.273Z,44.10
2017-10-25T12:29:11.287Z,44.00
2017-10-25T12:31:39.955Z,44.90
2017-10-25T12:34:08.622Z,45.30
2017-10-25T12:36:36.435Z,45.30
2017-10-25T12:39:05.198Z,46.90
2017-10-25T12:41:33.832Z,47.60
2017-10-25T12:44:01.638Z,47.60
2017-10-25T12:46:29.542Z,47.90
2017-10-25T12:48:57.459Z,48.20
2017-10-25T12:51:25.491Z,48.20
2017-10-25T12:53:53.369Z,49.20
2017-10-25T12:56:21.195Z,49.40
2017-10-25T12:58:49.875Z,50.40
2017-10-25T13:01:18.641Z,50.30
2017-10-25T13:03:46.564Z,50.30
2017-10-25T13:06:14.491Z,50.20
2017-10-25T13:08:42.411Z,50.70
2017-10-25T13:15:00.823Z,50.30
2017-10-25T13:17:51.701Z,51.30
2017-10-25T13:20:19.588Z,50.70
2017-10-25T13:22:48.004Z,50.90
2017-10-25T13:25:16.692Z,50.80
2017-10-25T13:27:45.258Z,51.20
2017-10-25T13:30:13.927Z,51.00
2017-10-25T13:32:42.728Z,51.00
2017-10-25T13:35:11.320Z,51.00
2017-10-25T13:37:40.663Z,51.20
2017-10-25T13:40:08.608Z,51.20
2017-10-25T13:42:36.500Z,51.50
2017-10-25T13:45:04.488Z,51.50
2017-10-25T13:47:32.383Z,51.70
2017-10-25T13:50:00.253Z,52.10
2017-10-25T13:52:28.880Z,52.70
2017-10-25T13:54:56.724Z,52.60
2017-10-25T13:57:26.357Z,52.70
2017-10-25T13:59:54.226Z,52.40
2017-10-25T14:02:22.174Z,51.80
2017-10-25T14:04:50.142Z,51.50
2017-10-25T14:07:19.229Z,51.60
2017-10-25T14:09:47.092Z,51.60
2017-10-25T14:12:14.935Z,51.40
2017-10-25T14:14:42.799Z,51.50
2017-10-25T14:17:10.635Z,51.50
2017-10-25T14:19:38.812Z,51.70
2017-10-25T14:22:06.633Z,51.60
2017-10-25T14:24:34.496Z,51.70
2017-10-25T14:27:14.321Z,51.00
2017-10-25T14:29:44.728Z,50.90
2017-10-25T14:32:12.581Z,50.80
2017-10-25T14:34:40.442Z,50.70
2017-10-25T14:37:08.352Z,51.20
2017-10-25T14:39:36.972Z,51.50
2017-10-25T14:42:04.783Z,51.50
2017-10-25T14:44:32.635Z,51.50
2017-10-25T14:47:00.519Z,51.70
2017-10-25T14:49:28.415Z,51.70
2017-10-25T14:51:57.022Z,52.00
2017-10-25T14:54:24.831Z,52.00
2017-10-25T14:56:52.711Z,51.60
2017-10-25T14:59:21.398Z,52.10
2017-10-25T15:01:50.014Z,52.20
2017-10-25T15:04:17.830Z,52.20
2017-10-25T15:06:45.659Z,52.30
2017-10-25T15:09:13.584Z,52.30
2017-10-25T15:11:42.201Z,52.10
2017-10-25T15:14:10.092Z,52.10
2017-10-25T15:16:37.977Z,52.20
2017-10-25T15:19:05.807Z,52.20
2017-10-25T15:21:33.669Z,51.80
2017-10-25T15:24:01.741Z,52.00
2017-10-25T15:26:29.599Z,52.20
2017-10-25T15:28:57.628Z,52.10
2017-10-25T15:31:25.555Z,51.80
2017-10-25T15:33:53.453Z,52.10
2017-10-25T15:36:21.418Z,52.10
2017-10-25T15:38:49.309Z,52.20
2017-10-25T15:41:17.925Z,51.40
2017-10-25T15:43:45.963Z,51.30
2017-10-25T15:46:13.877Z,51.80
2017-10-25T15:48:42.044Z,52.50
2017-10-25T15:51:09.901Z,51.40
2017-10-25T15:53:37.813Z,51.40
2017-10-25T15:56:05.636Z,51.30
2017-10-25T15:58:33.484Z,51.40
2017-10-25T16:01:02.098Z,52.00
2017-10-25T16:03:30.075Z,52.00
2017-10-25T16:05:57.933Z,52.40
2017-10-25T16:08:25.751Z,52.50
2017-10-25T16:10:54.349Z,52.30
2017-10-25T16:13:22.935Z,52.00
2017-10-25T16:15:51.697Z,52.20
2017-10-25T16:18:20.332Z,52.10
2017-10-25T16:20:48.244Z,52.10
2017-10-25T16:23:16.118Z,52.20
2017-10-25T16:25:44.792Z,52.20
2017-10-25T16:28:12.638Z,52.10
2017-10-25T16:30:41.608Z,52.20
2017-10-25T16:33:09.450Z,52.50
2017-10-25T16:35:38.167Z,53.10
2017-10-25T16:38:06.104Z,53.70
2017-10-25T16:40:33.944Z,53.40
2017-10-25T16:43:01.870Z,53.60
2017-10-25T16:45:29.782Z,53.80
2017-10-25T16:47:58.404Z,54.10
2017-10-25T16:50:26.275Z,54.10
2017-10-25T16:52:54.097Z,54.10
2017-10-25T16:55:21.917Z,54.20
2017-10-25T16:57:49.813Z,54.30
2017-10-25T17:00:17.656Z,54.30
2017-10-25T17:02:45.555Z,54.50
2017-10-25T17:05:13.384Z,54.50
2017-10-25T17:07:41.228Z,54.70
2017-10-25T17:10:09.252Z,54.70
2017-10-25T17:12:37.195Z,54.60
2017-10-25T17:15:05.083Z,54.60
2017-10-25T17:17:32.937Z,54.60
2017-10-25T17:20:00.776Z,54.50
2017-10-25T17:22:28.619Z,54.30
2017-10-25T17:24:57.279Z,54.40
2017-10-25T17:27:26.091Z,54.10
2017-10-25T17:29:53.991Z,54.10
2017-10-25T17:32:22.011Z,54.10
2017-10-25T17:34:50.011Z,53.80
2017-10-25T17:37:18.028Z,53.80
2017-10-25T17:39:45.872Z,53.90
2017-10-25T17:42:13.803Z,53.80
2017-10-25T17:44:42.464Z,53.70
2017-10-25T17:47:11.085Z,53.80
2017-10-25T17:49:38.980Z,53.80
2017-10-25T17:52:06.845Z,53.70
2017-10-25T17:54:34.757Z,53.80
2017-10-25T17:57:03.378Z,54.00
2017-10-25T17:59:31.216Z,54.10
2017-10-25T18:01:59.962Z,54.10
2017-10-25T18:04:27.809Z,54.20
2017-10-25T18:06:57.196Z,54.20
2017-10-25T18:09:25.080Z,54.20
2017-10-25T18:11:53.033Z,54.20
2017-10-25T18:14:20.884Z,54.10
2017-10-25T18:16:48.696Z,53.90
2017-10-25T18:19:16.594Z,54.00
2017-10-25T18:21:45.496Z,54.10
2017-10-25T18:24:14.597Z,54.10
2017-10-25T18:26:42.555Z,54.00
2017-10-25T18:29:10.537Z,53.80
2017-10-25T18:31:38.955Z,54.00
2017-10-25T18:34:07.661Z,54.20
2017-10-25T18:36:36.539Z,54.30
2017-10-25T18:39:04.568Z,54.30
2017-10-25T18:41:32.534Z,54.60
2017-10-25T18:44:00.468Z,54.90
2017-10-25T18:46:29.176Z,54.40
2017-10-25T18:48:57.782Z,54.50
2017-10-25T18:51:25.694Z,54.50
2017-10-25T18:53:53.557Z,54.70
2017-10-25T18:56:21.401Z,54.70
2017-10-25T18:58:50.644Z,54.50
2017-10-25T19:01:18.936Z,54.10
2017-10-25T19:03:46.948Z,54.10
2017-10-25T19:06:27.291Z,54.10
2017-10-25T19:08:56.066Z,53.80
2017-10-25T19:11:30.550Z,54.60
2017-10-25T19:14:00.034Z,54.00
2017-10-25T19:16:28.028Z,53.80
2017-10-25T19:18:55.875Z,53.50
2017-10-25T19:21:23.748Z,53.20
2017-10-25T19:23:51.599Z,53.10
2017-10-25T19:26:21.544Z,53.00
2017-10-25T19:28:50.287Z,52.70
2017-10-25T19:31:18.143Z,52.70
2017-10-25T19:33:48.375Z,52.10
2017-10-25T19:36:17.099Z,52.40
2017-10-25T19:38:45.807Z,52.50
2017-10-25T19:41:14.719Z,52.50
2017-10-25T19:43:42.595Z,52.60
2017-10-25T19:46:10.626Z,52.90
2017-10-25T19:48:41.425Z,52.40
2017-10-25T19:51:19.073Z,52.60
2017-10-25T19:53:47.288Z,53.10
2017-10-25T19:56:15.253Z,52.40
2017-10-25T19:58:43.138Z,52.30
2017-10-25T20:01:11.015Z,52.40
2017-10-25T20:03:41.056Z,52.30
2017-10-25T20:06:10.646Z,52.00
2017-10-25T20:08:38.594Z,51.70
2017-10-25T20:11:06.476Z,51.50
2017-10-25T20:13:34.506Z,51.50
2017-10-25T20:16:02.440Z,51.20
2017-10-25T20:18:31.096Z,50.60
2017-10-25T20:20:59.111Z,50.60
2017-10-25T20:23:27.429Z,50.40
2017-10-25T20:25:55.423Z,50.20
2017-10-25T20:28:24.169Z,50.10
2017-10-25T20:30:52.441Z,50.00
2017-10-25T20:33:20.319Z,50.00
2017-10-25T20:35:48.239Z,50.20
2017-10-25T20:38:16.098Z,50.20
2017-10-25T20:40:44.739Z,49.90
2017-10-25T20:43:12.575Z,49.90
2017-10-25T20:45:40.538Z,49.20
2017-10-25T20:48:08.389Z,49.00
2017-10-25T20:50:37.087Z,48.70
2017-10-25T20:53:04.958Z,48.60
2017-10-25T20:55:32.767Z,48.60
2017-10-25T20:58:00.844Z,48.40
2017-10-25T21:00:28.709Z,48.40
2017-10-25T21:02:56.802Z,48.30
2017-10-25T21:05:25.470Z,48.00
2017-10-25T21:07:53.410Z,47.90
2017-10-25T21:10:21.476Z,47.70
2017-10-25T21:12:49.488Z,47.10
2017-10-25T21:15:17.380Z,47.00
2017-10-25T21:17:46.104Z,47.30
2017-10-25T21:20:13.907Z,47.30
2017-10-25T21:22:41.780Z,47.30
2017-10-25T21:25:10.387Z,47.30
2017-10-25T21:27:39.136Z,47.50
2017-10-25T21:30:06.969Z,47.50
2017-10-25T21:32:34.922Z,47.40
2017-10-25T21:35:02.771Z,47.50
2017-10-25T21:37:31.379Z,47.00
2017-10-25T21:39:59.207Z,47.00
2017-10-25T21:42:27.839Z,47.60
2017-10-25T21:44:55.728Z,47.60
2017-10-25T21:47:23.763Z,47.70
2017-10-25T21:49:51.705Z,47.70
2017-10-25T21:52:20.299Z,46.70
2017-10-25T21:54:48.145Z,46.70
2017-10-25T21:57:16.777Z,47.20
2017-10-25T21:59:44.599Z,47.10
2017-10-25T22:02:13.326Z,46.10
2017-10-25T22:04:41.273Z,46.00
2017-10-25T22:07:09.128Z,45.90
2017-10-25T22:09:37.776Z,46.10
2017-10-25T22:12:05.597Z,46.10
2017-10-25T22:14:33.523Z,46.80
2017-10-25T22:17:02.188Z,45.70
2017-10-25T22:19:30.252Z,45.70
2017-10-25T22:21:58.126Z,46.10
2017-10-25T22:24:26.331Z,46.10
2017-10-25T22:26:54.920Z,44.40
2017-10-25T22:29:23.530Z,44.60
2017-10-25T22:31:51.503Z,44.70
2017-10-25T22:34:19.313Z,44.30
2017-10-25T22:36:47.181Z,44.80
2017-10-25T22:39:15.040Z,45.50
2017-10-25T22:41:42.900Z,45.50
2017-10-25T22:44:10.766Z,45.90
2017-10-25T22:46:38.676Z,46.10
2017-10-25T22:49:06.564Z,45.40
2017-10-25T22:51:34.422Z,46.40
2017-10-25T22:54:02.523Z,45.50
2017-10-25T22:56:31.338Z,45.50
2017-10-25T22:58:59.342Z,44.80
2017-10-25T23:01:27.304Z,44.90
2017-10-25T23:03:56.074Z,45.20
2017-10-25T23:06:24.703Z,45.20
2017-10-25T23:08:52.537Z,45.20
2017-10-25T23:11:21.120Z,44.90
2017-10-25T23:13:49.767Z,45.20
2017-10-25T23:16:17.689Z,45.20
2017-10-25T23:18:45.503Z,45.60
2017-10-25T23:21:13.386Z,45.60
2017-10-25T23:23:42.000Z,45.60
2017-10-25T23:26:09.961Z,45.60
2017-10-25T23:28:38.568Z,45.40
2017-10-25T23:31:06.465Z,45.40
2017-10-25T23:33:34.301Z,45.40
2017-10-25T23:36:02.201Z,45.30
2017-10-25T23:38:30.166Z,45.20
2017-10-25T23:40:58.051Z,45.40
2017-10-25T23:43:25.932Z,45.50
2017-10-25T23:45:53.868Z,45.00
2017-10-25T23:48:21.799Z,45.80
2017-10-25T23:50:49.628Z,45.40
2017-10-25T23:53:18.252Z,45.30
2017-10-25T23:55:46.072Z,45.30
2017-10-25T23:58:13.897Z,45.50
